Impacts TAF Board
For situational awareness. Not to be used for flight planning purposes.
IDs:

KSSF - San Antonio/Stinson, TX, US

Issued at 1720 UTC 21 May 2022
Updated at 2230 UTC 21 May 2022
Potential Impact None Slight Moderate High
Time2153Z 21/23Z 22/00Z 22/01Z 22/02Z 22/03Z 22/04Z 22/05Z 22/06Z 22/07Z 22/08Z 22/09Z 22/10Z 22/11Z>>
Type OBS PRVL PRVL PRVL PRVL PRVL PRVL PRVL PRVL PRVL PRVL PRVL PRVL PRVL
VIS 10 >6 >6 >6 >6 >6 >6 >6 >6 >6 >6 >6 >6 >6
CIG -- -- -- 50 50 50 50 50 50 15 15 15 15 15
Cover CLR SCT SCT BKN BKN BKN BKN BKN BKN OVC OVC OVC OVC OVC
FltCat VFR VFR VFR VFR VFR VFR VFR VFR VFR MVFR MVFR MVFR MVFR MVFR
WX -- -- -- -SHRA VCTS -SHRA VCTS -SHRA VCTS -SHRA VCTS -SHRA VCTS -SHRA VCTS VCSH VCSH VCSH VCSH VCSH
WDir 130 130 130 70 70 70 70 70 70 40 40 40 40 40
WSpd 9 9 9 12 12 12 12 12 12 12 12 12 12 12
WGst -- -- -- -- -- -- -- -- -- -- -- -- -- --
WSHgt -- -- -- -- -- -- -- -- -- -- -- -- -- --
WSDir -- -- -- -- -- -- -- -- -- -- -- -- -- --
WSSpd -- -- -- -- -- -- -- -- -- -- -- -- -- --
Raw TAF
KSSF 211720Z 2118/2218 13009KT P6SM SCT050 SCT100
  FM220100 07012KT P6SM -SHRA VCTS BKN050CB
  FM220700 04012KT P6SM VCSH OVC015
  FM221600 04012KT P6SM BKN025


Raw METAR
KSSF 212153Z 13009KT 10SM CLR 41/19 A2973 RMK AO2 SLP052 T04060194 $
KSSF 212053Z 13011G17KT 10SM CLR 40/20 A2975 RMK AO2 SLP057 T04000200 56020 $
KSSF 211953Z 10008KT 10SM CLR 39/21 A2977 RMK AO2 SLP064 T03940211 $

METAR Board
Radar Display
Forecast Discussion
For situational awareness. Not to be used for flight planning purposes.